Airfield :
LOGIN :

Register | Disclaimer

   EN    FR    IT 

 










Legend :    VFR   Marginal VFR   IFR   Intensive IFR   Very Intensive IFR
Visi :
Ceiling :
>= 8 km
>= 3000ft
5 to 8 km
1000 to 3000 ft
1500m to 5 km
500 to 1000 ft
800 to 1500m
200 to 500 ft
< 800m
< 200 ft
Symbols :   Thunderstorms  Fog  Heavy snow  Heavy precipitations  Wind > 20 kt
SIGMETs :     Misc.  Thunderstorms  Icing  Turbulence  Mountain Waves  Volcanic Ashes






- Airport Elevation : 28 ft
- IATA code : SOZ


LFKS - Solenzara

CURRENT METAR :
  • 041230Z AUTO 16009KT CAVOK 32/20 Q1015

EXPIRED METARs :
  • 041200Z AUTO 15008KT 120V180 CAVOK 31/20 Q1015
  • 041130Z AUTO 16007KT 110V190 CAVOK 32/20 Q1015
  • 041100Z AUTO 17008KT 130V190 CAVOK 31/19 Q1015
  • 041030Z AUTO 15006KT 100V180 CAVOK 31/18 Q1016
  • 041000Z AUTO 15006KT 100V190 CAVOK 31/19 Q1016

TAF TAF LFKS
Valid from the 04 at 09:00 until the 05 at 09:00 UTC


040800Z 0409/0509 12005KT CAVOK



MET'MAP, your aeronautical weather chart ! - Copyright ORBIFLY December 2007 - Disclaimer

ORBIFLY MET'MAP TEAM :

Programming & Development : Alexandra Zaïnal
Original concept : Baudouin d'Aumeries
Technical & hardware support : Manuel Goepfert
Assistance : Marc-Olivier Méhu




SOURCES & CREDITS :

   NOAA